Time,TemperatureF,DewpointF,PressureIn,WindDirection,WindDirectionDegrees,WindSpeedMPH,WindSpeedGustMPH,Humidity,HourlyPrecipIn,Conditions,Clouds,dailyrainin,SoftwareType,DateUTC
2013-01-18 00:02:00,65.0,59.0,-100.00,NW,322,3.0,7.0,80,0.00,,,0.00,,2013-01-18 10:02:00,
2013-01-18 00:12:00,65.0,59.0,-100.00,NW,322,3.0,7.0,80,0.00,,,0.00,,2013-01-18 10:12:00,
2013-01-18 00:22:00,65.0,59.0,-100.00,NW,322,3.0,7.0,80,0.00,,,0.00,,2013-01-18 10:22:00,
2013-01-18 00:32:00,65.0,59.0,-100.00,NW,322,3.0,7.0,80,0.00,,,0.00,,2013-01-18 10:32:00,
2013-01-18 00:41:00,64.0,58.0,-100.00,NNW,334,3.0,5.0,82,0.00,,,0.00,,2013-01-18 10:41:00,
2013-01-18 01:02:00,64.0,58.0,-100.00,NNW,334,3.0,5.0,82,0.00,,,0.00,,2013-01-18 11:02:00,
2013-01-18 01:12:00,64.0,58.0,-100.00,NNW,334,3.0,5.0,82,0.00,,,0.00,,2013-01-18 11:12:00,
2013-01-18 01:22:00,64.0,58.0,-100.00,NNW,334,3.0,5.0,82,0.00,,,0.00,,2013-01-18 11:22:00,
2013-01-18 01:32:00,64.0,58.0,-100.00,NNW,334,3.0,5.0,82,0.00,,,0.00,,2013-01-18 11:32:00,
2013-01-18 01:41:00,65.0,60.0,-100.00,NNW,334,4.0,8.0,83,0.00,,,0.00,,2013-01-18 11:41:00,
2013-01-18 02:02:00,65.0,60.0,-100.00,NNW,334,4.0,8.0,83,0.00,,,0.00,,2013-01-18 12:02:00,
2013-01-18 02:12:00,65.0,60.0,-100.00,NNW,334,4.0,8.0,83,0.00,,,0.00,,2013-01-18 12:12:00,
2013-01-18 02:22:00,65.0,60.0,-100.00,NNW,334,4.0,8.0,83,0.00,,,0.00,,2013-01-18 12:22:00,
2013-01-18 02:32:00,65.0,60.0,-100.00,NNW,334,4.0,8.0,83,0.00,,,0.00,,2013-01-18 12:32:00,
2013-01-18 02:41:00,65.0,60.0,-100.00,NE,43,3.0,7.0,83,0.00,,,0.00,,2013-01-18 12:41:00,
2013-01-18 03:03:00,65.0,60.0,-100.00,NE,43,3.0,7.0,83,0.00,,,0.00,,2013-01-18 13:03:00,
2013-01-18 03:12:00,65.0,60.0,-100.00,NE,43,3.0,7.0,83,0.00,,,0.00,,2013-01-18 13:12:00,
2013-01-18 03:22:00,65.0,60.0,-100.00,NE,43,3.0,7.0,83,0.00,,,0.00,,2013-01-18 13:22:00,
2013-01-18 03:33:00,65.0,60.0,-100.00,NE,43,3.0,7.0,83,0.00,,,0.00,,2013-01-18 13:33:00,
2013-01-18 03:41:00,64.0,60.0,-100.00,NNW,337,3.0,6.0,88,0.00,,,0.00,,2013-01-18 13:41:00,
2013-01-18 04:03:00,64.0,60.0,-100.00,NNW,337,3.0,6.0,88,0.00,,,0.00,,2013-01-18 14:03:00,
2013-01-18 04:12:00,64.0,60.0,-100.00,NNW,337,3.0,6.0,88,0.00,,,0.00,,2013-01-18 14:12:00,
2013-01-18 04:22:00,64.0,60.0,-100.00,NNW,337,3.0,6.0,88,0.00,,,0.00,,2013-01-18 14:22:00,
2013-01-18 04:33:00,64.0,60.0,-100.00,NNW,337,3.0,6.0,88,0.00,,,0.00,,2013-01-18 14:33:00,
2013-01-18 04:41:00,64.0,59.0,-100.00,North,355,4.0,7.0,84,0.00,,,0.00,,2013-01-18 14:41:00,
2013-01-18 05:03:00,64.0,59.0,-100.00,North,355,4.0,7.0,84,0.00,,,0.00,,2013-01-18 15:03:00,
2013-01-18 05:12:00,64.0,59.0,-100.00,North,355,4.0,7.0,84,0.00,,,0.00,,2013-01-18 15:12:00,
2013-01-18 05:22:00,64.0,59.0,-100.00,North,355,4.0,7.0,84,0.00,,,0.00,,2013-01-18 15:22:00,
2013-01-18 05:33:00,64.0,59.0,-100.00,North,355,4.0,7.0,84,0.00,,,0.00,,2013-01-18 15:33:00,
2013-01-18 05:41:00,63.0,58.0,-100.00,WNW,300,2.0,8.0,84,0.00,,,0.00,,2013-01-18 15:41:00,
2013-01-18 06:03:00,63.0,58.0,-100.00,WNW,300,2.0,8.0,84,0.00,,,0.00,,2013-01-18 16:03:00,
2013-01-18 06:12:00,63.0,58.0,-100.00,WNW,300,2.0,8.0,84,0.00,,,0.00,,2013-01-18 16:12:00,
2013-01-18 06:23:00,63.0,58.0,-100.00,WNW,300,2.0,8.0,84,0.00,,,0.00,,2013-01-18 16:23:00,
2013-01-18 06:32:00,63.0,58.0,-100.00,WNW,300,2.0,8.0,84,0.00,,,0.00,,2013-01-18 16:32:00,
2013-01-18 06:41:00,62.0,58.0,-100.00,North,358,2.0,6.0,86,0.00,,,0.00,,2013-01-18 16:41:00,
2013-01-18 07:02:00,62.0,58.0,-100.00,North,358,2.0,6.0,86,0.00,,,0.00,,2013-01-18 17:02:00,
2013-01-18 07:12:00,62.0,58.0,-100.00,North,358,2.0,6.0,86,0.00,,,0.00,,2013-01-18 17:12:00,
2013-01-18 07:23:00,62.0,58.0,-100.00,North,358,2.0,6.0,86,0.00,,,0.00,,2013-01-18 17:23:00,
2013-01-18 07:33:00,62.0,58.0,-100.00,North,358,2.0,6.0,86,0.00,,,0.00,,2013-01-18 17:33:00,
2013-01-18 07:41:00,63.0,61.0,-100.00,ENE,74,2.0,5.0,92,0.00,,,0.00,,2013-01-18 17:41:00,
2013-01-18 08:03:00,63.0,61.0,-100.00,ENE,74,2.0,5.0,92,0.00,,,0.00,,2013-01-18 18:03:00,
2013-01-18 08:12:00,63.0,61.0,-100.00,ENE,74,2.0,5.0,92,0.00,,,0.00,,2013-01-18 18:12:00,
2013-01-18 08:23:00,63.0,61.0,-100.00,ENE,74,2.0,5.0,92,0.00,,,0.00,,2013-01-18 18:23:00,
2013-01-18 08:32:00,63.0,61.0,-100.00,ENE,74,2.0,5.0,92,0.00,,,0.00,,2013-01-18 18:32:00,
2013-01-18 08:41:00,68.0,61.0,-100.00,ENE,58,4.0,5.0,79,0.00,,,0.00,,2013-01-18 18:41:00,
2013-01-18 09:02:00,68.0,61.0,-100.00,ENE,58,4.0,5.0,79,0.00,,,0.00,,2013-01-18 19:02:00,
2013-01-18 09:12:00,68.0,61.0,-100.00,ENE,58,4.0,5.0,79,0.00,,,0.00,,2013-01-18 19:12:00,
2013-01-18 09:22:00,68.0,61.0,-100.00,ENE,58,4.0,5.0,79,0.00,,,0.00,,2013-01-18 19:22:00,
2013-01-18 09:33:00,68.0,61.0,-100.00,ENE,58,4.0,5.0,79,0.00,,,0.00,,2013-01-18 19:33:00,
2013-01-18 09:41:00,74.0,64.0,-100.00,NW,312,3.0,5.0,70,0.00,,,-99.99,,2013-01-18 19:41:00,
2013-01-18 10:03:00,74.0,64.0,-100.00,NW,312,3.0,5.0,70,0.00,,,-99.99,,2013-01-18 20:03:00,
2013-01-18 10:12:00,74.0,64.0,-100.00,NW,312,3.0,5.0,70,0.00,,,-99.99,,2013-01-18 20:12:00,
2013-01-18 10:22:00,74.0,64.0,-100.00,NW,312,3.0,5.0,70,0.00,,,-99.99,,2013-01-18 20:22:00,
2013-01-18 10:33:00,74.0,64.0,-100.00,NW,312,3.0,5.0,70,0.00,,,-99.99,,2013-01-18 20:33:00,
2013-01-18 10:41:00,76.0,61.0,-100.00,NNE,18,7.0,15.0,60,0.00,,,0.00,,2013-01-18 20:41:00,
2013-01-18 11:03:00,76.0,61.0,-100.00,NNE,18,7.0,15.0,60,0.00,,,0.00,,2013-01-18 21:03:00,
2013-01-18 11:12:00,76.0,61.0,-100.00,NNE,18,7.0,15.0,60,0.00,,,0.00,,2013-01-18 21:12:00,
2013-01-18 11:22:00,76.0,61.0,-100.00,NNE,18,7.0,15.0,60,0.00,,,0.00,,2013-01-18 21:22:00,
2013-01-18 11:33:00,76.0,61.0,-100.00,NNE,18,7.0,15.0,60,0.00,,,0.00,,2013-01-18 21:33:00,
2013-01-18 11:41:00,76.0,58.0,-100.00,NNE,23,10.0,18.0,53,0.00,,,0.00,,2013-01-18 21:41:00,
2013-01-18 12:03:00,76.0,58.0,-100.00,NNE,23,10.0,18.0,53,0.00,,,0.00,,2013-01-18 22:03:00,
2013-01-18 12:12:00,76.0,58.0,-100.00,NNE,23,10.0,18.0,53,0.00,,,0.00,,2013-01-18 22:12:00,
2013-01-18 12:22:00,76.0,58.0,-100.00,NNE,23,10.0,18.0,53,0.00,,,0.00,,2013-01-18 22:22:00,
2013-01-18 12:32:00,76.0,58.0,-100.00,NNE,23,10.0,18.0,53,0.00,,,0.00,,2013-01-18 22:32:00,
2013-01-18 12:41:00,77.0,59.0,-100.00,North,355,9.0,17.0,53,0.00,,,0.00,,2013-01-18 22:41:00,
2013-01-18 13:02:00,77.0,59.0,-100.00,North,355,9.0,17.0,53,0.00,,,0.00,,2013-01-18 23:02:00,
2013-01-18 13:12:00,77.0,59.0,-100.00,North,355,9.0,17.0,53,0.00,,,0.00,,2013-01-18 23:12:00,
2013-01-18 13:22:00,77.0,59.0,-100.00,North,355,9.0,17.0,53,0.00,,,0.00,,2013-01-18 23:22:00,
2013-01-18 13:32:00,77.0,59.0,-100.00,North,355,9.0,17.0,53,0.00,,,0.00,,2013-01-18 23:32:00,
2013-01-18 13:41:00,78.0,58.0,-100.00,North,358,8.0,15.0,51,0.00,,,0.00,,2013-01-18 23:41:00,
2013-01-18 14:02:00,78.0,58.0,-100.00,North,358,8.0,15.0,51,0.00,,,0.00,,2013-01-19 00:02:00,
2013-01-18 14:12:00,78.0,58.0,-100.00,North,358,8.0,15.0,51,0.00,,,0.00,,2013-01-19 00:12:00,
2013-01-18 14:22:00,78.0,58.0,-100.00,North,358,8.0,15.0,51,0.00,,,0.00,,2013-01-19 00:22:00,
2013-01-18 14:32:00,78.0,58.0,-100.00,North,358,8.0,15.0,51,0.00,,,0.00,,2013-01-19 00:32:00,
2013-01-18 14:41:00,79.0,58.0,-100.00,North,351,8.0,15.0,49,0.00,,,0.00,,2013-01-19 00:41:00,
2013-01-18 15:02:00,79.0,58.0,-100.00,North,351,8.0,15.0,49,0.00,,,0.00,,2013-01-19 01:02:00,
2013-01-18 15:12:00,79.0,58.0,-100.00,North,351,8.0,15.0,49,0.00,,,0.00,,2013-01-19 01:12:00,
2013-01-18 15:22:00,79.0,58.0,-100.00,North,351,8.0,15.0,49,0.00,,,0.00,,2013-01-19 01:22:00,
2013-01-18 15:32:00,79.0,58.0,-100.00,North,351,8.0,15.0,49,0.00,,,0.00,,2013-01-19 01:32:00,
2013-01-18 15:41:00,76.0,56.0,-100.00,NNW,339,12.0,19.0,50,0.00,,,0.00,,2013-01-19 01:41:00,
2013-01-18 16:02:00,76.0,56.0,-100.00,NNW,339,12.0,19.0,50,0.00,,,0.00,,2013-01-19 02:02:00,
2013-01-18 16:12:00,76.0,56.0,-100.00,NNW,339,12.0,19.0,50,0.00,,,0.00,,2013-01-19 02:12:00,
2013-01-18 16:22:00,76.0,56.0,-100.00,NNW,339,12.0,19.0,50,0.00,,,0.00,,2013-01-19 02:22:00,
2013-01-18 16:32:00,76.0,56.0,-100.00,NNW,339,12.0,19.0,50,0.00,,,0.00,,2013-01-19 02:32:00,
2013-01-18 16:41:00,75.0,59.0,-100.00,North,2,9.0,17.0,58,0.00,,,0.00,,2013-01-19 02:41:00,
2013-01-18 17:02:00,75.0,59.0,-100.00,North,2,9.0,17.0,58,0.00,,,0.00,,2013-01-19 03:02:00,
2013-01-18 17:12:00,75.0,59.0,-100.00,North,2,9.0,17.0,58,0.00,,,0.00,,2013-01-19 03:12:00,
2013-01-18 17:22:00,75.0,59.0,-100.00,North,2,9.0,17.0,58,0.00,,,0.00,,2013-01-19 03:22:00,
2013-01-18 17:32:00,75.0,59.0,-100.00,North,2,9.0,17.0,58,0.00,,,0.00,,2013-01-19 03:32:00,
2013-01-18 17:41:00,73.0,61.0,-100.00,North,359,9.0,17.0,66,0.00,,,0.00,,2013-01-19 03:41:00,
2013-01-18 18:02:00,73.0,61.0,-100.00,North,359,9.0,17.0,66,0.00,,,0.00,,2013-01-19 04:02:00,
2013-01-18 18:12:00,73.0,61.0,-100.00,North,359,9.0,17.0,66,0.00,,,0.00,,2013-01-19 04:12:00,
2013-01-18 18:22:00,73.0,61.0,-100.00,North,359,9.0,17.0,66,0.00,,,0.00,,2013-01-19 04:22:00,
2013-01-18 18:32:00,73.0,61.0,-100.00,North,359,9.0,17.0,66,0.00,,,0.00,,2013-01-19 04:32:00,
2013-01-18 18:41:00,72.0,62.0,-100.00,North,2,7.0,16.0,70,0.00,,,0.00,,2013-01-19 04:41:00,
2013-01-18 19:03:00,72.0,62.0,-100.00,North,2,7.0,16.0,70,0.00,,,0.00,,2013-01-19 05:03:00,
2013-01-18 19:12:00,72.0,62.0,-100.00,North,2,7.0,16.0,70,0.00,,,0.00,,2013-01-19 05:12:00,
2013-01-18 19:22:00,72.0,62.0,-100.00,North,2,7.0,16.0,70,0.00,,,0.00,,2013-01-19 05:22:00,
2013-01-18 19:32:00,72.0,62.0,-100.00,North,2,7.0,16.0,70,0.00,,,0.00,,2013-01-19 05:32:00,
2013-01-18 19:41:00,71.0,62.0,-100.00,North,6,7.0,14.0,74,0.00,,,0.00,,2013-01-19 05:41:00,
2013-01-18 20:02:00,71.0,62.0,-100.00,North,6,7.0,14.0,74,0.00,,,0.00,,2013-01-19 06:02:00,
2013-01-18 20:12:00,71.0,62.0,-100.00,North,6,7.0,14.0,74,0.00,,,0.00,,2013-01-19 06:12:00,
2013-01-18 20:22:00,71.0,62.0,-100.00,North,6,7.0,14.0,74,0.00,,,0.00,,2013-01-19 06:22:00,
2013-01-18 20:32:00,71.0,62.0,-100.00,North,6,7.0,14.0,74,0.00,,,0.00,,2013-01-19 06:32:00,
2013-01-18 20:41:00,70.0,62.0,-100.00,NNE,22,8.0,13.0,75,0.00,,,0.00,,2013-01-19 06:41:00,
2013-01-18 21:02:00,70.0,62.0,-100.00,NNE,22,8.0,13.0,75,0.00,,,0.00,,2013-01-19 07:02:00,
2013-01-18 21:12:00,70.0,62.0,-100.00,NNE,22,8.0,13.0,75,0.00,,,0.00,,2013-01-19 07:12:00,
2013-01-18 21:22:00,70.0,62.0,-100.00,NNE,22,8.0,13.0,75,0.00,,,0.00,,2013-01-19 07:22:00,
2013-01-18 21:32:00,70.0,62.0,-100.00,NNE,22,8.0,13.0,75,0.00,,,0.00,,2013-01-19 07:32:00,
2013-01-18 21:41:00,70.0,62.0,-100.00,NNE,27,6.0,14.0,76,0.00,,,0.00,,2013-01-19 07:41:00,
2013-01-18 22:02:00,70.0,62.0,-100.00,NNE,27,6.0,14.0,76,0.00,,,0.00,,2013-01-19 08:02:00,
2013-01-18 22:12:00,70.0,62.0,-100.00,NNE,27,6.0,14.0,76,0.00,,,0.00,,2013-01-19 08:12:00,
2013-01-18 22:22:00,70.0,62.0,-100.00,NNE,27,6.0,14.0,76,0.00,,,0.00,,2013-01-19 08:22:00,
2013-01-18 22:32:00,70.0,62.0,-100.00,NNE,27,6.0,14.0,76,0.00,,,0.00,,2013-01-19 08:32:00,
2013-01-18 22:41:00,70.0,59.0,-100.00,North,4,9.0,17.0,68,0.00,,,0.00,,2013-01-19 08:41:00,
2013-01-18 23:02:00,70.0,59.0,-100.00,North,4,9.0,17.0,68,0.00,,,0.00,,2013-01-19 09:02:00,
2013-01-18 23:12:00,70.0,59.0,-100.00,North,4,9.0,17.0,68,0.00,,,0.00,,2013-01-19 09:12:00,
2013-01-18 23:22:00,70.0,59.0,-100.00,North,4,9.0,17.0,68,0.00,,,0.00,,2013-01-19 09:22:00,
2013-01-18 23:32:00,70.0,59.0,-100.00,North,4,9.0,17.0,68,0.00,,,0.00,,2013-01-19 09:32:00,
2013-01-18 23:41:00,67.0,56.0,-100.00,North,351,4.0,17.0,68,0.00,,,0.00,,2013-01-19 09:41:00,